sensor_id;sensor_type;location;lat;lon;timestamp;P1;durP1;ratioP1;P2;durP2;ratioP2
38853;SDS011;24606;51.992;4.198;2022-12-07T00:03:56;1.88;;;0.73;;
38853;SDS011;24606;51.992;4.198;2022-12-07T00:09:07;1.45;;;0.60;;
38853;SDS011;24606;51.992;4.198;2022-12-07T00:14:12;3.72;;;0.90;;
38853;SDS011;24606;51.992;4.198;2022-12-07T00:19:16;2.35;;;0.60;;
38853;SDS011;24606;51.992;4.198;2022-12-07T00:24:18;3.90;;;0.50;;
38853;SDS011;24606;51.992;4.198;2022-12-07T00:29:20;1.87;;;0.77;;
38853;SDS011;24606;51.992;4.198;2022-12-07T00:34:24;1.92;;;0.43;;
38853;SDS011;24606;51.992;4.198;2022-12-07T00:39:26;2.03;;;0.57;;
38853;SDS011;24606;51.992;4.198;2022-12-07T00:44:28;1.07;;;0.47;;
38853;SDS011;24606;51.992;4.198;2022-12-07T00:49:31;2.45;;;0.70;;
38853;SDS011;24606;51.992;4.198;2022-12-07T00:54:33;3.40;;;0.55;;
38853;SDS011;24606;51.992;4.198;2022-12-07T00:59:35;1.43;;;0.60;;
38853;SDS011;24606;51.992;4.198;2022-12-07T01:04:38;0.57;;;0.30;;
38853;SDS011;24606;51.992;4.198;2022-12-07T01:09:40;1.27;;;0.70;;
38853;SDS011;24606;51.992;4.198;2022-12-07T01:14:42;5.32;;;0.95;;
38853;SDS011;24606;51.992;4.198;2022-12-07T01:19:46;1.60;;;0.50;;
38853;SDS011;24606;51.992;4.198;2022-12-07T01:24:48;2.05;;;0.60;;
38853;SDS011;24606;51.992;4.198;2022-12-07T01:29:50;6.20;;;1.30;;
38853;SDS011;24606;51.992;4.198;2022-12-07T01:34:53;1.30;;;0.30;;
38853;SDS011;24606;51.992;4.198;2022-12-07T01:39:55;1.58;;;0.40;;
38853;SDS011;24606;51.992;4.198;2022-12-07T01:50:47;2.17;;;0.40;;
38853;SDS011;24606;51.992;4.198;2022-12-07T01:55:51;1.25;;;0.32;;
38853;SDS011;24606;51.992;4.198;2022-12-07T02:00:54;2.15;;;0.95;;
38853;SDS011;24606;51.992;4.198;2022-12-07T02:05:57;2.07;;;0.40;;
38853;SDS011;24606;51.992;4.198;2022-12-07T02:11:00;1.52;;;0.40;;
38853;SDS011;24606;51.992;4.198;2022-12-07T02:16:07;3.13;;;0.60;;
38853;SDS011;24606;51.992;4.198;2022-12-07T02:21:18;1.77;;;0.50;;
38853;SDS011;24606;51.992;4.198;2022-12-07T02:26:44;2.75;;;0.50;;
38853;SDS011;24606;51.992;4.198;2022-12-07T02:32:10;3.22;;;0.32;;
38853;SDS011;24606;51.992;4.198;2022-12-07T02:37:23;5.78;;;0.80;;
38853;SDS011;24606;51.992;4.198;2022-12-07T02:42:36;1.58;;;0.30;;
38853;SDS011;24606;51.992;4.198;2022-12-07T02:47:45;8.93;;;0.70;;
38853;SDS011;24606;51.992;4.198;2022-12-07T02:52:52;5.30;;;0.80;;
38853;SDS011;24606;51.992;4.198;2022-12-07T02:57:59;2.38;;;0.75;;
38853;SDS011;24606;51.992;4.198;2022-12-07T03:03:12;3.35;;;0.30;;
38853;SDS011;24606;51.992;4.198;2022-12-07T03:08:18;5.78;;;0.40;;
38853;SDS011;24606;51.992;4.198;2022-12-07T03:13:28;3.15;;;0.40;;
38853;SDS011;24606;51.992;4.198;2022-12-07T03:18:37;2.03;;;0.40;;
38853;SDS011;24606;51.992;4.198;2022-12-07T03:23:43;1.33;;;0.40;;
38853;SDS011;24606;51.992;4.198;2022-12-07T03:28:50;2.22;;;0.50;;
38853;SDS011;24606;51.992;4.198;2022-12-07T03:33:58;4.43;;;0.60;;
38853;SDS011;24606;51.992;4.198;2022-12-07T03:39:06;2.97;;;0.50;;
38853;SDS011;24606;51.992;4.198;2022-12-07T03:44:14;3.13;;;0.38;;
38853;SDS011;24606;51.992;4.198;2022-12-07T03:54:25;1.50;;;0.50;;
38853;SDS011;24606;51.992;4.198;2022-12-07T03:59:30;4.35;;;0.63;;
38853;SDS011;24606;51.992;4.198;2022-12-07T04:04:35;5.25;;;0.63;;
38853;SDS011;24606;51.992;4.198;2022-12-07T04:09:37;2.15;;;0.40;;
38853;SDS011;24606;51.992;4.198;2022-12-07T04:14:39;1.30;;;0.50;;
38853;SDS011;24606;51.992;4.198;2022-12-07T04:19:42;1.50;;;0.40;;
38853;SDS011;24606;51.992;4.198;2022-12-07T04:24:44;2.72;;;0.52;;
38853;SDS011;24606;51.992;4.198;2022-12-07T04:29:46;1.10;;;0.50;;
38853;SDS011;24606;51.992;4.198;2022-12-07T04:34:49;2.30;;;0.40;;
38853;SDS011;24606;51.992;4.198;2022-12-07T04:39:51;2.22;;;0.35;;
38853;SDS011;24606;51.992;4.198;2022-12-07T04:44:53;2.42;;;0.50;;
38853;SDS011;24606;51.992;4.198;2022-12-07T04:49:56;3.07;;;0.80;;
38853;SDS011;24606;51.992;4.198;2022-12-07T04:54:58;3.05;;;0.70;;
38853;SDS011;24606;51.992;4.198;2022-12-07T05:00:00;3.33;;;0.82;;
38853;SDS011;24606;51.992;4.198;2022-12-07T05:05:03;4.27;;;0.40;;
38853;SDS011;24606;51.992;4.198;2022-12-07T05:10:06;4.85;;;0.85;;
38853;SDS011;24606;51.992;4.198;2022-12-07T05:20:12;5.93;;;1.20;;
38853;SDS011;24606;51.992;4.198;2022-12-07T05:25:14;6.53;;;1.13;;
38853;SDS011;24606;51.992;4.198;2022-12-07T05:30:16;2.27;;;0.83;;
38853;SDS011;24606;51.992;4.198;2022-12-07T05:35:19;17.70;;;1.40;;
38853;SDS011;24606;51.992;4.198;2022-12-07T05:40:23;5.90;;;1.17;;
38853;SDS011;24606;51.992;4.198;2022-12-07T05:45:25;8.93;;;0.65;;
38853;SDS011;24606;51.992;4.198;2022-12-07T05:50:28;1.80;;;0.60;;
38853;SDS011;24606;51.992;4.198;2022-12-07T05:55:30;2.67;;;0.60;;
38853;SDS011;24606;51.992;4.198;2022-12-07T06:00:32;6.80;;;0.60;;
38853;SDS011;24606;51.992;4.198;2022-12-07T06:05:35;3.08;;;0.60;;
38853;SDS011;24606;51.992;4.198;2022-12-07T06:10:37;7.65;;;1.00;;
38853;SDS011;24606;51.992;4.198;2022-12-07T06:15:39;1.33;;;0.43;;
38853;SDS011;24606;51.992;4.198;2022-12-07T06:20:42;3.78;;;0.68;;
38853;SDS011;24606;51.992;4.198;2022-12-07T06:25:45;7.03;;;0.70;;
38853;SDS011;24606;51.992;4.198;2022-12-07T06:30:46;1.10;;;0.40;;
38853;SDS011;24606;51.992;4.198;2022-12-07T06:35:50;3.42;;;0.98;;
38853;SDS011;24606;51.992;4.198;2022-12-07T06:40:51;4.53;;;0.43;;
38853;SDS011;24606;51.992;4.198;2022-12-07T06:45:53;0.82;;;0.50;;
38853;SDS011;24606;51.992;4.198;2022-12-07T06:50:56;2.20;;;0.77;;
38853;SDS011;24606;51.992;4.198;2022-12-07T06:55:58;0.90;;;0.50;;
38853;SDS011;24606;51.992;4.198;2022-12-07T07:01:00;4.13;;;0.63;;
38853;SDS011;24606;51.992;4.198;2022-12-07T07:15:28;7.50;;;0.82;;
38853;SDS011;24606;51.992;4.198;2022-12-07T07:20:31;4.28;;;0.98;;
38853;SDS011;24606;51.992;4.198;2022-12-07T07:25:33;3.00;;;0.70;;
38853;SDS011;24606;51.992;4.198;2022-12-07T07:30:37;6.43;;;0.95;;
38853;SDS011;24606;51.992;4.198;2022-12-07T07:35:39;4.93;;;0.68;;
38853;SDS011;24606;51.992;4.198;2022-12-07T07:40:41;3.30;;;0.83;;
38853;SDS011;24606;51.992;4.198;2022-12-07T07:45:44;3.00;;;0.63;;
38853;SDS011;24606;51.992;4.198;2022-12-07T07:50:46;2.53;;;0.70;;
38853;SDS011;24606;51.992;4.198;2022-12-07T07:55:51;3.13;;;0.83;;
38853;SDS011;24606;51.992;4.198;2022-12-07T08:00:55;1.77;;;0.63;;
38853;SDS011;24606;51.992;4.198;2022-12-07T08:05:56;1.15;;;0.50;;
38853;SDS011;24606;51.992;4.198;2022-12-07T08:10:58;1.43;;;0.40;;
38853;SDS011;24606;51.992;4.198;2022-12-07T08:16:04;0.82;;;0.40;;
38853;SDS011;24606;51.992;4.198;2022-12-07T08:21:08;1.42;;;0.40;;
38853;SDS011;24606;51.992;4.198;2022-12-07T08:26:14;3.67;;;0.57;;
38853;SDS011;24606;51.992;4.198;2022-12-07T08:31:18;1.30;;;0.43;;
38853;SDS011;24606;51.992;4.198;2022-12-07T08:36:20;2.10;;;0.60;;
38853;SDS011;24606;51.992;4.198;2022-12-07T08:41:22;1.85;;;0.88;;
38853;SDS011;24606;51.992;4.198;2022-12-07T08:46:26;4.93;;;0.77;;
38853;SDS011;24606;51.992;4.198;2022-12-07T08:51:33;2.75;;;0.75;;
38853;SDS011;24606;51.992;4.198;2022-12-07T08:56:35;3.05;;;1.00;;
38853;SDS011;24606;51.992;4.198;2022-12-07T09:01:38;5.65;;;1.20;;
38853;SDS011;24606;51.992;4.198;2022-12-07T09:06:40;3.85;;;1.15;;
38853;SDS011;24606;51.992;4.198;2022-12-07T09:11:43;3.30;;;0.50;;
38853;SDS011;24606;51.992;4.198;2022-12-07T09:16:47;2.50;;;0.70;;
38853;SDS011;24606;51.992;4.198;2022-12-07T09:21:49;3.72;;;0.90;;
38853;SDS011;24606;51.992;4.198;2022-12-07T09:26:51;3.00;;;0.50;;
38853;SDS011;24606;51.992;4.198;2022-12-07T09:31:54;0.77;;;0.60;;
38853;SDS011;24606;51.992;4.198;2022-12-07T09:36:56;5.93;;;0.65;;
38853;SDS011;24606;51.992;4.198;2022-12-07T09:41:58;2.90;;;0.50;;
38853;SDS011;24606;51.992;4.198;2022-12-07T09:47:02;8.07;;;0.52;;
38853;SDS011;24606;51.992;4.198;2022-12-07T09:52:17;2.45;;;0.30;;
38853;SDS011;24606;51.992;4.198;2022-12-07T09:57:24;0.65;;;0.30;;
38853;SDS011;24606;51.992;4.198;2022-12-07T10:02:34;1.95;;;0.43;;
38853;SDS011;24606;51.992;4.198;2022-12-07T10:07:37;4.80;;;1.17;;
38853;SDS011;24606;51.992;4.198;2022-12-07T10:12:52;4.07;;;0.77;;
38853;SDS011;24606;51.992;4.198;2022-12-07T10:17:56;2.78;;;0.60;;
38853;SDS011;24606;51.992;4.198;2022-12-07T10:23:00;2.80;;;0.40;;
38853;SDS011;24606;51.992;4.198;2022-12-07T10:28:12;3.65;;;0.50;;
38853;SDS011;24606;51.992;4.198;2022-12-07T10:33:28;1.73;;;0.50;;
38853;SDS011;24606;51.992;4.198;2022-12-07T10:38:31;1.95;;;0.68;;
38853;SDS011;24606;51.992;4.198;2022-12-07T10:43:33;1.50;;;0.50;;
38853;SDS011;24606;51.992;4.198;2022-12-07T10:48:37;4.43;;;0.68;;
38853;SDS011;24606;51.992;4.198;2022-12-07T10:53:50;0.77;;;0.35;;
38853;SDS011;24606;51.992;4.198;2022-12-07T10:59:05;3.45;;;0.45;;
38853;SDS011;24606;51.992;4.198;2022-12-07T11:04:24;1.25;;;0.60;;
38853;SDS011;24606;51.992;4.198;2022-12-07T11:09:44;4.78;;;1.05;;
38853;SDS011;24606;51.992;4.198;2022-12-07T11:14:54;6.07;;;1.83;;
38853;SDS011;24606;51.992;4.198;2022-12-07T11:20:05;6.75;;;1.20;;
38853;SDS011;24606;51.992;4.198;2022-12-07T11:25:21;1.45;;;0.55;;
38853;SDS011;24606;51.992;4.198;2022-12-07T11:30:32;6.47;;;0.80;;
38853;SDS011;24606;51.992;4.198;2022-12-07T11:35:43;2.67;;;0.47;;
38853;SDS011;24606;51.992;4.198;2022-12-07T11:40:55;2.42;;;0.57;;
38853;SDS011;24606;51.992;4.198;2022-12-07T11:46:13;9.55;;;0.73;;
38853;SDS011;24606;51.992;4.198;2022-12-07T11:51:19;3.88;;;0.85;;
38853;SDS011;24606;51.992;4.198;2022-12-07T11:56:23;3.65;;;1.08;;
38853;SDS011;24606;51.992;4.198;2022-12-07T12:01:35;3.47;;;0.95;;
38853;SDS011;24606;51.992;4.198;2022-12-07T12:06:48;1.48;;;0.63;;
38853;SDS011;24606;51.992;4.198;2022-12-07T12:11:58;5.95;;;0.80;;
38853;SDS011;24606;51.992;4.198;2022-12-07T12:17:20;2.55;;;0.65;;
38853;SDS011;24606;51.992;4.198;2022-12-07T12:22:41;2.13;;;0.60;;
38853;SDS011;24606;51.992;4.198;2022-12-07T12:27:45;1.10;;;0.47;;
38853;SDS011;24606;51.992;4.198;2022-12-07T12:32:50;1.80;;;0.28;;
38853;SDS011;24606;51.992;4.198;2022-12-07T12:37:53;1.92;;;0.38;;
38853;SDS011;24606;51.992;4.198;2022-12-07T12:42:56;6.65;;;0.55;;
38853;SDS011;24606;51.992;4.198;2022-12-07T12:47:58;5.72;;;0.70;;
38853;SDS011;24606;51.992;4.198;2022-12-07T12:53:11;2.72;;;0.30;;
38853;SDS011;24606;51.992;4.198;2022-12-07T12:58:30;1.63;;;0.50;;
38853;SDS011;24606;51.992;4.198;2022-12-07T13:03:36;0.65;;;0.20;;
38853;SDS011;24606;51.992;4.198;2022-12-07T13:08:41;4.50;;;0.45;;
38853;SDS011;24606;51.992;4.198;2022-12-07T13:13:43;3.50;;;0.43;;
38853;SDS011;24606;51.992;4.198;2022-12-07T13:18:45;2.17;;;0.60;;
38853;SDS011;24606;51.992;4.198;2022-12-07T13:23:54;1.03;;;0.57;;
38853;SDS011;24606;51.992;4.198;2022-12-07T13:29:04;0.85;;;0.40;;
38853;SDS011;24606;51.992;4.198;2022-12-07T13:34:28;5.47;;;0.63;;
38853;SDS011;24606;51.992;4.198;2022-12-07T13:39:33;1.27;;;0.25;;
38853;SDS011;24606;51.992;4.198;2022-12-07T13:44:45;1.45;;;0.50;;
38853;SDS011;24606;51.992;4.198;2022-12-07T13:49:47;1.97;;;0.63;;
38853;SDS011;24606;51.992;4.198;2022-12-07T13:54:56;4.60;;;0.80;;
38853;SDS011;24606;51.992;4.198;2022-12-07T14:00:00;2.30;;;0.75;;
38853;SDS011;24606;51.992;4.198;2022-12-07T14:05:07;1.60;;;0.40;;
38853;SDS011;24606;51.992;4.198;2022-12-07T14:15:29;1.05;;;0.30;;
38853;SDS011;24606;51.992;4.198;2022-12-07T14:20:32;4.72;;;0.57;;
38853;SDS011;24606;51.992;4.198;2022-12-07T14:25:45;2.15;;;0.90;;
38853;SDS011;24606;51.992;4.198;2022-12-07T14:30:48;3.92;;;0.50;;
38853;SDS011;24606;51.992;4.198;2022-12-07T14:35:50;2.38;;;0.40;;
38853;SDS011;24606;51.992;4.198;2022-12-07T14:40:56;1.65;;;0.60;;
38853;SDS011;24606;51.992;4.198;2022-12-07T14:46:19;3.47;;;1.70;;
38853;SDS011;24606;51.992;4.198;2022-12-07T14:51:21;3.97;;;1.23;;
38853;SDS011;24606;51.992;4.198;2022-12-07T14:56:24;0.40;;;0.20;;
38853;SDS011;24606;51.992;4.198;2022-12-07T15:01:27;2.03;;;0.63;;
38853;SDS011;24606;51.992;4.198;2022-12-07T15:06:29;3.30;;;0.98;;
38853;SDS011;24606;51.992;4.198;2022-12-07T15:11:33;8.13;;;1.13;;
38853;SDS011;24606;51.992;4.198;2022-12-07T15:16:35;5.30;;;0.80;;
38853;SDS011;24606;51.992;4.198;2022-12-07T15:21:37;1.40;;;0.50;;
38853;SDS011;24606;51.992;4.198;2022-12-07T15:26:41;5.37;;;0.97;;
38853;SDS011;24606;51.992;4.198;2022-12-07T15:31:43;3.45;;;1.20;;
38853;SDS011;24606;51.992;4.198;2022-12-07T15:41:48;8.48;;;0.75;;
38853;SDS011;24606;51.992;4.198;2022-12-07T15:46:50;3.67;;;0.80;;
38853;SDS011;24606;51.992;4.198;2022-12-07T15:51:52;1.83;;;0.60;;
38853;SDS011;24606;51.992;4.198;2022-12-07T15:56:56;1.70;;;0.60;;
38853;SDS011;24606;51.992;4.198;2022-12-07T16:01:57;3.58;;;0.70;;
38853;SDS011;24606;51.992;4.198;2022-12-07T16:06:59;1.88;;;0.52;;
38853;SDS011;24606;51.992;4.198;2022-12-07T16:12:03;2.50;;;0.50;;
38853;SDS011;24606;51.992;4.198;2022-12-07T16:17:05;1.77;;;0.75;;
38853;SDS011;24606;51.992;4.198;2022-12-07T16:22:08;2.97;;;0.70;;
38853;SDS011;24606;51.992;4.198;2022-12-07T16:27:12;1.50;;;0.37;;
38853;SDS011;24606;51.992;4.198;2022-12-07T16:32:13;3.83;;;0.65;;
38853;SDS011;24606;51.992;4.198;2022-12-07T16:37:15;1.58;;;0.50;;
38853;SDS011;24606;51.992;4.198;2022-12-07T16:42:18;1.13;;;0.53;;
38853;SDS011;24606;51.992;4.198;2022-12-07T16:47:20;1.80;;;0.60;;
38853;SDS011;24606;51.992;4.198;2022-12-07T16:52:22;2.15;;;0.80;;
38853;SDS011;24606;51.992;4.198;2022-12-07T16:57:25;2.50;;;0.50;;
38853;SDS011;24606;51.992;4.198;2022-12-07T17:02:27;7.50;;;0.98;;
38853;SDS011;24606;51.992;4.198;2022-12-07T17:07:29;5.23;;;1.00;;
38853;SDS011;24606;51.992;4.198;2022-12-07T17:12:32;6.13;;;1.33;;
38853;SDS011;24606;51.992;4.198;2022-12-07T17:17:34;2.72;;;0.60;;
38853;SDS011;24606;51.992;4.198;2022-12-07T17:22:36;2.25;;;0.80;;
38853;SDS011;24606;51.992;4.198;2022-12-07T17:27:39;7.33;;;2.13;;
38853;SDS011;24606;51.992;4.198;2022-12-07T17:32:41;8.25;;;3.63;;
38853;SDS011;24606;51.992;4.198;2022-12-07T17:37:43;13.77;;;4.67;;
38853;SDS011;24606;51.992;4.198;2022-12-07T17:42:47;6.23;;;3.13;;
38853;SDS011;24606;51.992;4.198;2022-12-07T17:47:50;6.13;;;1.23;;
38853;SDS011;24606;51.992;4.198;2022-12-07T17:52:53;5.50;;;1.65;;
38853;SDS011;24606;51.992;4.198;2022-12-07T17:58:10;2.65;;;1.15;;
38853;SDS011;24606;51.992;4.198;2022-12-07T18:03:12;2.80;;;1.50;;
38853;SDS011;24606;51.992;4.198;2022-12-07T18:08:14;12.57;;;5.37;;
38853;SDS011;24606;51.992;4.198;2022-12-07T18:13:17;18.92;;;6.80;;
38853;SDS011;24606;51.992;4.198;2022-12-07T18:18:37;10.68;;;5.30;;
38853;SDS011;24606;51.992;4.198;2022-12-07T18:23:39;13.90;;;6.18;;
38853;SDS011;24606;51.992;4.198;2022-12-07T18:28:43;12.40;;;4.97;;
38853;SDS011;24606;51.992;4.198;2022-12-07T18:33:46;11.60;;;4.95;;
38853;SDS011;24606;51.992;4.198;2022-12-07T18:38:48;8.90;;;2.33;;
38853;SDS011;24606;51.992;4.198;2022-12-07T18:43:51;10.27;;;5.57;;
38853;SDS011;24606;51.992;4.198;2022-12-07T18:48:53;13.00;;;6.18;;
38853;SDS011;24606;51.992;4.198;2022-12-07T18:53:56;11.48;;;6.07;;
38853;SDS011;24606;51.992;4.198;2022-12-07T18:59:01;8.70;;;4.75;;
38853;SDS011;24606;51.992;4.198;2022-12-07T19:04:22;10.75;;;5.60;;
38853;SDS011;24606;51.992;4.198;2022-12-07T19:09:24;8.37;;;4.57;;
38853;SDS011;24606;51.992;4.198;2022-12-07T19:14:29;10.02;;;2.70;;
38853;SDS011;24606;51.992;4.198;2022-12-07T19:19:33;3.90;;;2.15;;
38853;SDS011;24606;51.992;4.198;2022-12-07T19:24:37;3.30;;;1.05;;
38853;SDS011;24606;51.992;4.198;2022-12-07T19:29:40;2.78;;;1.40;;
38853;SDS011;24606;51.992;4.198;2022-12-07T19:34:43;3.22;;;1.63;;
38853;SDS011;24606;51.992;4.198;2022-12-07T19:39:46;2.35;;;1.17;;
38853;SDS011;24606;51.992;4.198;2022-12-07T19:44:52;3.00;;;1.27;;
38853;SDS011;24606;51.992;4.198;2022-12-07T19:49:54;2.42;;;1.35;;
38853;SDS011;24606;51.992;4.198;2022-12-07T19:54:56;4.88;;;1.40;;
38853;SDS011;24606;51.992;4.198;2022-12-07T19:59:59;1.92;;;0.90;;
38853;SDS011;24606;51.992;4.198;2022-12-07T20:05:01;2.05;;;1.00;;
38853;SDS011;24606;51.992;4.198;2022-12-07T20:10:03;1.70;;;0.73;;
38853;SDS011;24606;51.992;4.198;2022-12-07T20:15:07;3.13;;;0.98;;
38853;SDS011;24606;51.992;4.198;2022-12-07T20:20:10;3.45;;;1.00;;
38853;SDS011;24606;51.992;4.198;2022-12-07T20:30:18;5.75;;;0.90;;
38853;SDS011;24606;51.992;4.198;2022-12-07T20:35:19;2.58;;;1.05;;
38853;SDS011;24606;51.992;4.198;2022-12-07T20:40:21;2.75;;;1.00;;
38853;SDS011;24606;51.992;4.198;2022-12-07T20:45:24;3.90;;;0.80;;
38853;SDS011;24606;51.992;4.198;2022-12-07T20:55:28;6.57;;;1.52;;
38853;SDS011;24606;51.992;4.198;2022-12-07T21:00:32;3.10;;;1.37;;
38853;SDS011;24606;51.992;4.198;2022-12-07T21:05:35;2.72;;;0.80;;
38853;SDS011;24606;51.992;4.198;2022-12-07T21:10:37;3.77;;;1.00;;
38853;SDS011;24606;51.992;4.198;2022-12-07T21:15:41;3.28;;;1.08;;
38853;SDS011;24606;51.992;4.198;2022-12-07T21:20:42;1.83;;;0.80;;
38853;SDS011;24606;51.992;4.198;2022-12-07T21:25:44;3.17;;;1.48;;
38853;SDS011;24606;51.992;4.198;2022-12-07T21:30:48;2.63;;;0.80;;
38853;SDS011;24606;51.992;4.198;2022-12-07T21:35:49;3.65;;;0.95;;
38853;SDS011;24606;51.992;4.198;2022-12-07T21:40:51;2.08;;;0.75;;
38853;SDS011;24606;51.992;4.198;2022-12-07T21:45:54;3.90;;;0.80;;
38853;SDS011;24606;51.992;4.198;2022-12-07T21:51:02;3.58;;;0.70;;
38853;SDS011;24606;51.992;4.198;2022-12-07T21:56:08;4.10;;;0.80;;
38853;SDS011;24606;51.992;4.198;2022-12-07T22:01:16;6.50;;;0.90;;
38853;SDS011;24606;51.992;4.198;2022-12-07T22:06:20;5.57;;;1.42;;
38853;SDS011;24606;51.992;4.198;2022-12-07T22:11:23;7.65;;;1.73;;
38853;SDS011;24606;51.992;4.198;2022-12-07T22:16:26;9.52;;;1.17;;
38853;SDS011;24606;51.992;4.198;2022-12-07T22:21:29;4.82;;;1.60;;
38853;SDS011;24606;51.992;4.198;2022-12-07T22:26:31;3.67;;;0.50;;
38853;SDS011;24606;51.992;4.198;2022-12-07T22:31:35;2.63;;;1.13;;
38853;SDS011;24606;51.992;4.198;2022-12-07T22:36:39;3.97;;;1.10;;
38853;SDS011;24606;51.992;4.198;2022-12-07T22:41:41;3.13;;;0.77;;
38853;SDS011;24606;51.992;4.198;2022-12-07T22:46:45;2.33;;;0.63;;
38853;SDS011;24606;51.992;4.198;2022-12-07T22:51:46;4.15;;;1.00;;
38853;SDS011;24606;51.992;4.198;2022-12-07T22:56:48;7.57;;;0.82;;
38853;SDS011;24606;51.992;4.198;2022-12-07T23:01:51;1.70;;;0.60;;
38853;SDS011;24606;51.992;4.198;2022-12-07T23:06:53;2.95;;;0.65;;
38853;SDS011;24606;51.992;4.198;2022-12-07T23:11:58;4.18;;;0.68;;
38853;SDS011;24606;51.992;4.198;2022-12-07T23:17:18;2.20;;;0.82;;
38853;SDS011;24606;51.992;4.198;2022-12-07T23:22:20;1.35;;;0.50;;
38853;SDS011;24606;51.992;4.198;2022-12-07T23:27:22;5.70;;;0.53;;
38853;SDS011;24606;51.992;4.198;2022-12-07T23:32:26;2.25;;;0.50;;
38853;SDS011;24606;51.992;4.198;2022-12-07T23:37:27;1.83;;;0.50;;
38853;SDS011;24606;51.992;4.198;2022-12-07T23:42:29;3.42;;;0.77;;
38853;SDS011;24606;51.992;4.198;2022-12-07T23:47:34;4.60;;;0.80;;
38853;SDS011;24606;51.992;4.198;2022-12-07T23:52:36;4.57;;;1.20;;
38853;SDS011;24606;51.992;4.198;2022-12-07T23:57:38;2.20;;;0.50;;
